createdAt,value
2023-03-06T00:00:56.721Z,99617.16
2023-03-06T00:03:27.877Z,99614.63
2023-03-06T00:05:57.396Z,99615.31
2023-03-06T00:08:27.182Z,99609.91
2023-03-06T00:10:56.214Z,99606.22
2023-03-06T00:13:26.541Z,99603.88
2023-03-06T00:15:55.044Z,99604.06
2023-03-06T00:18:23.190Z,99601.72
2023-03-06T00:20:52.547Z,99607.66
2023-03-06T00:23:20.783Z,99606.06
2023-03-06T00:25:48.774Z,99597.94
2023-03-06T00:28:17.797Z,99596.44
2023-03-06T00:30:47.481Z,99598.13
2023-03-06T00:33:15.574Z,99600.97
2023-03-06T00:35:43.959Z,99596.25
2023-03-06T00:38:15.022Z,99596.03
2023-03-06T00:40:43.166Z,99585.47
2023-03-06T00:43:11.482Z,99581.87
2023-03-06T00:45:40.219Z,99583.78
2023-03-06T00:48:09.618Z,99581.16
2023-03-06T00:50:37.698Z,99579.47
2023-03-06T00:53:06.104Z,99576.63
2023-03-06T00:55:35.502Z,99576.63
2023-03-06T00:58:03.486Z,99567.94
2023-03-06T01:00:31.790Z,99570.47
2023-03-06T01:03:00.051Z,99571.75
2023-03-06T01:05:28.231Z,99573.06
2023-03-06T01:07:56.519Z,99561.59
2023-03-06T01:10:24.826Z,99560.44
2023-03-06T01:12:54.700Z,99556.31
2023-03-06T01:15:23.486Z,99554.16
2023-03-06T01:17:54.122Z,99546.97
2023-03-06T01:20:22.504Z,99536.53
2023-03-06T01:22:50.724Z,99545.19
2023-03-06T01:25:19.478Z,99539.91
2023-03-06T01:27:48.020Z,99543.50
2023-03-06T01:30:18.083Z,99542.75
2023-03-06T01:32:48.153Z,99542.94
2023-03-06T01:35:17.235Z,99532.56
2023-03-06T01:37:45.484Z,99529.28
2023-03-06T01:40:14.540Z,99525.06
2023-03-06T01:42:43.260Z,99518.19
2023-03-06T01:45:44.677Z,99520.91
2023-03-06T01:48:14.499Z,99509.81
2023-03-06T01:50:42.689Z,99509.31
2023-03-06T01:53:11.637Z,99505.84
2023-03-06T01:55:40.538Z,99504.53
2023-03-06T01:58:13.400Z,99511.31
2023-03-06T02:00:41.618Z,99501.91
2023-03-06T02:03:13.712Z,99508.31
2023-03-06T02:05:44.754Z,99497.94
2023-03-06T02:08:15.894Z,99499.41
2023-03-06T02:10:45.070Z,99492.53
2023-03-06T02:13:13.961Z,99501.09
2023-03-06T02:15:42.114Z,99491.41
2023-03-06T02:18:10.494Z,99488.66
2023-03-06T02:20:44.809Z,99491.69
2023-03-06T02:23:22.131Z,99483.59
2023-03-06T02:25:53.657Z,99479.16
2023-03-06T02:28:25.369Z,99478.59
2023-03-06T02:30:55.157Z,99485.63
2023-03-06T02:33:26.183Z,99485.63
2023-03-06T02:35:55.861Z,99483.84
2023-03-06T02:38:29.097Z,99474.00
2023-03-06T02:40:58.945Z,99475.94
2023-03-06T02:43:32.671Z,99473.31
2023-03-06T02:46:00.991Z,99467.59
2023-03-06T02:48:29.301Z,99466.34
2023-03-06T02:50:57.401Z,99464.41
2023-03-06T02:53:25.631Z,99460.81
2023-03-06T02:55:54.413Z,99451.03
2023-03-06T02:58:23.786Z,99454.88
2023-03-06T03:00:52.008Z,99445.37
2023-03-06T03:03:20.501Z,99441.62
2023-03-06T03:05:48.579Z,99443.47
2023-03-06T03:08:18.120Z,99438.41
2023-03-06T03:10:46.890Z,99449.53
2023-03-06T03:13:15.168Z,99448.59
2023-03-06T03:15:45.432Z,99442.47
2023-03-06T03:18:13.773Z,99439.06
2023-03-06T03:20:43.697Z,99434.47
2023-03-06T03:23:11.820Z,99437.19
2023-03-06T03:25:40.120Z,99440.38
2023-03-06T03:28:08.373Z,99434.16
2023-03-06T03:30:36.459Z,99432.22
2023-03-06T03:33:06.202Z,99431.38
2023-03-06T03:35:34.400Z,99427.00
2023-03-06T03:38:02.458Z,99427.78
2023-03-06T03:40:31.068Z,99423.38
2023-03-06T03:42:59.771Z,99419.03
2023-03-06T03:45:28.602Z,99423.38
2023-03-06T03:47:56.895Z,99418.09
2023-03-06T03:50:26.957Z,99418.94
2023-03-06T03:52:55.388Z,99416.31
2023-03-06T03:55:24.100Z,99416.22
2023-03-06T03:57:52.348Z,99416.09
2023-03-06T04:00:21.027Z,99407.34
2023-03-06T04:02:52.607Z,99404.63
2023-03-06T04:05:21.720Z,99408.19
2023-03-06T04:07:51.268Z,99409.78
2023-03-06T04:10:20.632Z,99407.16
2023-03-06T04:12:48.627Z,99404.41
2023-03-06T04:15:16.895Z,99408.09
2023-03-06T04:17:46.233Z,99400.41
2023-03-06T04:20:15.029Z,99398.13
2023-03-06T04:22:43.444Z,99393.91
2023-03-06T04:25:13.440Z,99387.69
2023-03-06T04:27:41.735Z,99394.19
2023-03-06T04:30:11.354Z,99387.97
2023-03-06T04:32:39.931Z,99391.72
2023-03-06T04:35:08.814Z,99391.16
2023-03-06T04:37:37.553Z,99405.63
2023-03-06T04:40:07.191Z,99394.25
2023-03-06T04:42:36.778Z,99392.94
2023-03-06T04:45:05.134Z,99384.31
2023-03-06T04:47:33.378Z,99382.31
2023-03-06T04:50:01.368Z,99380.62
2023-03-06T04:52:29.356Z,99379.88
2023-03-06T04:54:58.048Z,99376.56
2023-03-06T04:57:26.112Z,99377.81
2023-03-06T04:59:55.528Z,99378.16
2023-03-06T05:02:24.708Z,99373.63
2023-03-06T05:04:52.817Z,99369.69
2023-03-06T05:07:20.887Z,99368.84
2023-03-06T05:09:49.270Z,99364.44
2023-03-06T05:12:17.333Z,99361.06
2023-03-06T05:14:47.740Z,99358.50
2023-03-06T05:17:17.677Z,99361.31
2023-03-06T05:19:45.826Z,99361.59
2023-03-06T05:22:13.945Z,99365.12
2023-03-06T05:24:42.231Z,99363.44
2023-03-06T05:27:10.190Z,99363.38
2023-03-06T05:29:38.299Z,99355.66
2023-03-06T05:32:07.226Z,99354.63
2023-03-06T05:34:36.789Z,99353.87
2023-03-06T05:37:04.873Z,99345.31
2023-03-06T05:39:33.358Z,99346.16
2023-03-06T05:42:01.432Z,99348.59
2023-03-06T05:44:32.190Z,99350.28
2023-03-06T05:47:01.169Z,99351.06
2023-03-06T05:49:34.085Z,99353.22
2023-03-06T05:52:05.031Z,99353.72
2023-03-06T05:54:33.677Z,99358.88
2023-03-06T05:57:01.998Z,99362.25
2023-03-06T05:59:32.869Z,99357.53
2023-03-06T06:02:01.459Z,99352.97
2023-03-06T06:04:29.784Z,99358.22
2023-03-06T06:07:00.204Z,99352.50
2023-03-06T06:09:30.689Z,99353.81
2023-03-06T06:12:01.896Z,99349.97
2023-03-06T06:14:30.378Z,99348.00
2023-03-06T06:16:58.683Z,99351.75
2023-03-06T06:19:31.690Z,99354.59
2023-03-06T06:22:02.519Z,99348.94
2023-03-06T06:24:33.481Z,99352.97
2023-03-06T06:27:03.853Z,99344.81
2023-03-06T06:29:32.852Z,99350.44
2023-03-06T06:32:01.665Z,99353.16
2023-03-06T06:34:30.575Z,99345.81
2023-03-06T06:36:58.612Z,99354.38
2023-03-06T06:39:28.974Z,99345.31
2023-03-06T06:42:20.291Z,99348.62
2023-03-06T06:44:46.721Z,99345.16
2023-03-06T06:47:24.552Z,99347.13
2023-03-06T06:49:54.700Z,99348.81
2023-03-06T06:52:24.747Z,99348.34
2023-03-06T06:54:53.472Z,99350.56
2023-03-06T06:57:22.871Z,99350.09
2023-03-06T06:59:53.425Z,99343.97
2023-03-06T07:02:23.484Z,99348.09
2023-03-06T07:05:06.962Z,99346.88
2023-03-06T07:07:36.993Z,99354.56
2023-03-06T07:10:07.034Z,99346.28
2023-03-06T07:12:37.688Z,99345.63
2023-03-06T07:15:08.046Z,99344.09
2023-03-06T07:17:36.202Z,99342.19
2023-03-06T07:20:07.188Z,99346.06
2023-03-06T07:22:50.017Z,99344.41
2023-03-06T07:25:19.112Z,99332.72
2023-03-06T07:27:53.244Z,99337.69
2023-03-06T07:30:22.822Z,99341.81
2023-03-06T07:32:53.942Z,99343.41
2023-03-06T07:35:22.679Z,99342.56
2023-03-06T07:37:51.206Z,99343.31
2023-03-06T07:40:20.695Z,99346.16
2023-03-06T07:42:50.245Z,99349.94
2023-03-06T07:45:21.907Z,99350.69
2023-03-06T07:47:51.318Z,99356.50
2023-03-06T07:50:20.948Z,99349.75
2023-03-06T07:52:49.719Z,99347.59
2023-03-06T07:55:18.922Z,99347.94
2023-03-06T07:57:47.332Z,99340.88
2023-03-06T08:00:17.913Z,99341.50
2023-03-06T08:02:46.474Z,99340.66
2023-03-06T08:05:16.457Z,99333.59
2023-03-06T08:07:45.602Z,99335.63
2023-03-06T08:10:16.627Z,99332.03
2023-03-06T08:12:45.013Z,99337.03
2023-03-06T08:15:14.538Z,99326.56
2023-03-06T08:17:44.143Z,99334.41
2023-03-06T08:20:14.512Z,99337.44
2023-03-06T08:22:43.103Z,99336.94
2023-03-06T08:25:13.466Z,99333.75
2023-03-06T08:27:41.931Z,99336.06
2023-03-06T08:30:11.533Z,99335.09
2023-03-06T08:32:39.573Z,99335.75
2023-03-06T08:35:10.046Z,99335.94
2023-03-06T08:37:38.414Z,99340.69
2023-03-06T08:40:07.639Z,99327.56
2023-03-06T08:42:35.622Z,99332.69
2023-03-06T08:45:04.241Z,99337.13
2023-03-06T08:47:32.253Z,99343.03
2023-03-06T08:50:00.889Z,99347.25
2023-03-06T08:52:30.633Z,99349.66
2023-03-06T08:55:03.489Z,99341.12
2023-03-06T08:57:31.855Z,99346.81
2023-03-06T08:59:59.805Z,99344.72
2023-03-06T09:02:28.129Z,99344.50
2023-03-06T09:04:56.477Z,99348.94
2023-03-06T09:07:24.456Z,99338.53
2023-03-06T09:09:56.837Z,99344.66
2023-03-06T09:12:25.644Z,99349.12
2023-03-06T09:14:53.830Z,99346.72
2023-03-06T09:17:24.253Z,99354.41
2023-03-06T09:19:52.662Z,99350.53
2023-03-06T09:22:20.629Z,99355.50
2023-03-06T09:24:49.067Z,99352.72
2023-03-06T09:27:18.746Z,99350.94
2023-03-06T09:29:46.660Z,99346.63
2023-03-06T09:32:14.704Z,99357.88
2023-03-06T09:34:43.118Z,99354.91
2023-03-06T09:37:11.109Z,99352.81
2023-03-06T09:39:39.083Z,99354.63
2023-03-06T09:42:08.916Z,99358.00
2023-03-06T09:44:41.118Z,99349.69
2023-03-06T09:47:41.504Z,99352.19
2023-03-06T09:50:33.594Z,99339.78
2023-03-06T09:53:32.473Z,99343.47
2023-03-06T09:56:04.907Z,99345.97
2023-03-06T09:58:38.531Z,99344.03
2023-03-06T10:01:17.378Z,99339.00
2023-03-06T10:03:51.806Z,99335.47
2023-03-06T10:06:25.318Z,99337.91
2023-03-06T10:08:59.047Z,99338.87
2023-03-06T10:11:33.346Z,99341.53
2023-03-06T10:14:17.474Z,99344.75
2023-03-06T10:16:46.992Z,99339.84
2023-03-06T10:19:17.560Z,99338.53
2023-03-06T10:21:52.357Z,99337.69
2023-03-06T10:24:41.128Z,99337.19
2023-03-06T10:27:17.491Z,99338.63
2023-03-06T10:30:02.707Z,99332.84
2023-03-06T10:32:49.176Z,99334.31
2023-03-06T10:35:21.225Z,99330.44
2023-03-06T10:37:49.775Z,99341.28
2023-03-06T10:40:35.744Z,99332.69
2023-03-06T10:43:11.404Z,99339.78
2023-03-06T10:45:49.773Z,99338.31
2023-03-06T10:48:22.020Z,99334.50
2023-03-06T10:50:50.476Z,99334.81
2023-03-06T10:53:25.218Z,99342.47
2023-03-06T10:55:59.184Z,99341.91
2023-03-06T10:58:29.079Z,99338.13
2023-03-06T11:01:07.889Z,99340.34
2023-03-06T11:03:37.877Z,99344.81
2023-03-06T11:06:12.619Z,99330.59
2023-03-06T11:08:42.889Z,99333.84
2023-03-06T11:11:36.867Z,99322.41
2023-03-06T11:14:16.330Z,99331.28
2023-03-06T11:16:52.713Z,99329.84
2023-03-06T11:19:26.514Z,99321.84
2023-03-06T11:22:03.306Z,99319.28
2023-03-06T11:24:37.112Z,99314.25
2023-03-06T11:27:18.823Z,99312.63
2023-03-06T11:29:49.539Z,99310.19
2023-03-06T11:32:23.485Z,99300.41
2023-03-06T11:34:58.721Z,99302.94
2023-03-06T11:37:43.300Z,99305.22
2023-03-06T11:40:18.557Z,99304.41
2023-03-06T11:42:54.467Z,99307.84
2023-03-06T11:45:28.663Z,99305.84
2023-03-06T11:48:04.893Z,99292.41
2023-03-06T11:50:37.988Z,99290.09
2023-03-06T11:53:11.535Z,99287.44
2023-03-06T11:55:47.140Z,99288.69
2023-03-06T11:58:52.490Z,99282.69
2023-03-06T12:01:27.043Z,99276.87
2023-03-06T12:04:07.865Z,99283.13
2023-03-06T12:06:46.795Z,99277.81
2023-03-06T12:09:27.478Z,99262.53
2023-03-06T12:12:11.312Z,99272.06
2023-03-06T12:15:00.300Z,99261.72
2023-03-06T12:17:37.320Z,99256.53
2023-03-06T12:20:23.872Z,99257.66
2023-03-06T12:23:02.383Z,99256.56
2023-03-06T12:25:38.596Z,99246.13
2023-03-06T12:28:32.052Z,99251.50
2023-03-06T12:31:25.664Z,99249.09
2023-03-06T12:34:07.148Z,99253.59
2023-03-06T12:36:47.145Z,99248.81
2023-03-06T12:39:28.335Z,99257.19
2023-03-06T12:42:22.614Z,99248.97
2023-03-06T12:45:03.181Z,99251.25
2023-03-06T12:47:38.958Z,99253.91
2023-03-06T12:50:19.082Z,99247.88
2023-03-06T12:52:48.116Z,99246.19
2023-03-06T12:55:24.296Z,99255.94
2023-03-06T12:57:54.413Z,99246.47
2023-03-06T13:01:03.529Z,99246.37
2023-03-06T13:03:44.870Z,99248.47
2023-03-06T13:06:39.264Z,99239.72
2023-03-06T13:09:20.731Z,99237.38
2023-03-06T13:12:10.891Z,99234.03
2023-03-06T13:14:57.708Z,99235.66
2023-03-06T13:17:37.677Z,99246.09
2023-03-06T13:20:35.103Z,99255.44
2023-03-06T13:23:42.914Z,99247.28
2023-03-06T13:26:32.135Z,99244.66
2023-03-06T13:29:01.588Z,99236.09
2023-03-06T13:32:08.732Z,99236.72
2023-03-06T13:34:38.934Z,99227.53
2023-03-06T13:37:39.152Z,99232.69
2023-03-06T13:40:30.663Z,99223.94
2023-03-06T13:43:22.038Z,99223.56
2023-03-06T13:45:51.821Z,99226.56
2023-03-06T13:48:43.674Z,99221.94
2023-03-06T13:51:24.253Z,99219.00
2023-03-06T13:54:21.488Z,99219.00
2023-03-06T13:57:11.696Z,99216.94
2023-03-06T14:00:08.781Z,99205.41
2023-03-06T14:03:19.909Z,99220.47
2023-03-06T14:05:51.382Z,99225.03
2023-03-06T14:08:21.278Z,99237.88
2023-03-06T14:10:59.033Z,99243.44
2023-03-06T14:13:41.888Z,99237.88
2023-03-06T14:16:20.201Z,99235.47
2023-03-06T14:18:50.421Z,99235.97
2023-03-06T14:21:30.897Z,99243.66
2023-03-06T14:24:03.367Z,99232.47
2023-03-06T14:26:34.595Z,99232.59
2023-03-06T14:29:04.098Z,99233.78
2023-03-06T14:31:34.468Z,99234.38
2023-03-06T14:34:05.886Z,99233.16
2023-03-06T14:36:43.090Z,99228.47
2023-03-06T14:39:15.591Z,99229.94
2023-03-06T14:41:43.597Z,99228.25
2023-03-06T14:44:18.077Z,99225.34
2023-03-06T14:46:47.694Z,99221.38
2023-03-06T14:49:16.635Z,99218.69
2023-03-06T14:51:47.867Z,99227.25
2023-03-06T14:54:20.484Z,99231.13
2023-03-06T14:56:51.412Z,99225.69
2023-03-06T14:59:25.752Z,99229.66
2023-03-06T15:01:59.328Z,99231.09
2023-03-06T15:04:32.965Z,99233.50
2023-03-06T15:07:02.850Z,99226.03
2023-03-06T15:09:33.703Z,99227.84
2023-03-06T15:12:03.542Z,99225.72
2023-03-06T15:14:35.832Z,99233.63
2023-03-06T15:17:21.600Z,99230.41
2023-03-06T15:19:51.517Z,99225.59
2023-03-06T15:22:27.384Z,99225.09
2023-03-06T15:25:26.826Z,99227.03
2023-03-06T15:27:58.049Z,99230.16
2023-03-06T15:30:30.360Z,99227.88
2023-03-06T15:33:23.082Z,99229.31
2023-03-06T15:35:57.143Z,99226.53
2023-03-06T15:38:33.799Z,99220.53
2023-03-06T15:41:03.502Z,99223.19
2023-03-06T15:43:36.075Z,99227.28
2023-03-06T15:46:06.591Z,99222.72
2023-03-06T15:48:35.361Z,99228.12
2023-03-06T15:51:04.798Z,99229.09
2023-03-06T15:53:34.443Z,99230.78
2023-03-06T15:56:02.853Z,99236.88
2023-03-06T15:58:34.582Z,99235.16
2023-03-06T16:01:03.834Z,99241.63
2023-03-06T16:03:32.248Z,99244.34
2023-03-06T16:06:00.345Z,99246.09
2023-03-06T16:08:28.831Z,99246.16
2023-03-06T16:10:59.039Z,99247.19
2023-03-06T16:13:28.968Z,99246.28
2023-03-06T16:15:57.361Z,99257.44
2023-03-06T16:18:25.333Z,99252.28
2023-03-06T16:20:53.330Z,99257.91
2023-03-06T16:23:21.602Z,99254.44
2023-03-06T16:25:50.522Z,99254.22
2023-03-06T16:28:19.889Z,99246.19
2023-03-06T16:30:48.294Z,99248.63
2023-03-06T16:33:16.385Z,99240.72
2023-03-06T16:35:46.713Z,99242.50
2023-03-06T16:38:16.263Z,99243.34
2023-03-06T16:40:45.010Z,99254.09
2023-03-06T16:43:16.022Z,99260.03
2023-03-06T16:45:45.738Z,99263.41
2023-03-06T16:48:17.896Z,99255.19
2023-03-06T16:50:46.337Z,99249.91
2023-03-06T16:53:15.358Z,99252.56
2023-03-06T16:55:43.465Z,99253.28
2023-03-06T16:58:11.758Z,99260.97
2023-03-06T17:00:39.863Z,99259.41
2023-03-06T17:03:09.141Z,99262.56
2023-03-06T17:05:39.232Z,99269.84
2023-03-06T17:08:07.247Z,99263.50
2023-03-06T17:10:35.350Z,99258.97
2023-03-06T17:13:03.722Z,99259.25
2023-03-06T17:15:31.851Z,99260.09
2023-03-06T17:18:00.040Z,99265.47
2023-03-06T17:20:29.682Z,99270.75
2023-03-06T17:22:57.730Z,99264.84
2023-03-06T17:25:26.029Z,99272.03
2023-03-06T17:27:54.500Z,99265.69
2023-03-06T17:30:22.869Z,99270.75
2023-03-06T17:32:50.965Z,99270.75
2023-03-06T17:35:19.512Z,99270.75
2023-03-06T17:37:48.987Z,99263.56
2023-03-06T17:40:17.425Z,99269.91
2023-03-06T17:42:45.835Z,99273.78
2023-03-06T17:45:14.108Z,99279.16
2023-03-06T17:47:42.116Z,99269.56
2023-03-06T17:50:11.839Z,99273.16
2023-03-06T17:52:39.926Z,99270.84
2023-03-06T17:55:10.292Z,99278.09
2023-03-06T17:57:38.688Z,99284.31
2023-03-06T18:00:08.288Z,99280.81
2023-03-06T18:02:40.247Z,99279.88
2023-03-06T18:05:09.819Z,99277.34
2023-03-06T18:07:38.169Z,99283.56
2023-03-06T18:10:06.935Z,99276.63
2023-03-06T18:12:36.528Z,99278.41
2023-03-06T18:15:05.065Z,99275.75
2023-03-06T18:17:33.091Z,99279.25
2023-03-06T18:20:01.404Z,99279.25
2023-03-06T18:22:29.547Z,99289.16
2023-03-06T18:24:57.495Z,99286.69
2023-03-06T18:27:25.831Z,99293.88
2023-03-06T18:29:55.734Z,99286.06
2023-03-06T18:32:23.781Z,99287.97
2023-03-06T18:34:52.133Z,99276.56
2023-03-06T18:37:20.291Z,99279.94
2023-03-06T18:39:48.488Z,99284.56
2023-03-06T18:42:16.900Z,99285.13
2023-03-06T18:44:47.811Z,99284.16
2023-03-06T18:47:17.582Z,99280.47
2023-03-06T18:49:46.275Z,99288.22
2023-03-06T18:52:14.530Z,99285.66
2023-03-06T18:54:42.795Z,99279.34
2023-03-06T18:57:12.141Z,99285.47
2023-03-06T18:59:40.472Z,99284.72
2023-03-06T19:02:08.588Z,99282.84
2023-03-06T19:04:38.752Z,99286.22
2023-03-06T19:07:07.245Z,99284.31
2023-03-06T19:09:35.644Z,99287.78
2023-03-06T19:12:04.256Z,99285.06
2023-03-06T19:14:32.519Z,99280.62
2023-03-06T19:17:00.589Z,99284.03
2023-03-06T19:19:29.399Z,99284.66
2023-03-06T19:21:59.632Z,99291.63
2023-03-06T19:24:27.615Z,99283.72
2023-03-06T19:26:55.822Z,99279.38
2023-03-06T19:29:23.961Z,99278.09
2023-03-06T19:31:52.280Z,99279.16
2023-03-06T19:34:20.800Z,99274.72
2023-03-06T19:36:51.275Z,99268.59
2023-03-06T19:39:20.949Z,99276.41
2023-03-06T19:41:49.296Z,99274.72
2023-03-06T19:44:17.735Z,99279.78
2023-03-06T19:46:45.927Z,99272.81
2023-03-06T19:49:18.073Z,99268.59
2023-03-06T19:51:46.304Z,99267.19
2023-03-06T19:54:15.149Z,99270.88
2023-03-06T19:56:44.666Z,99264.97
2023-03-06T19:59:12.885Z,99268.56
2023-03-06T20:01:41.240Z,99263.19
2023-03-06T20:04:09.592Z,99258.19
2023-03-06T20:06:38.856Z,99258.41
2023-03-06T20:09:09.773Z,99255.03
2023-03-06T20:11:38.886Z,99255.03
2023-03-06T20:14:09.705Z,99251.44
2023-03-06T20:16:38.688Z,99251.66
2023-03-06T20:19:08.713Z,99250.69
2023-03-06T20:21:38.224Z,99246.37
2023-03-06T20:24:07.823Z,99240.25
2023-03-06T20:26:37.796Z,99240.06
2023-03-06T20:29:06.053Z,99234.78
2023-03-06T20:31:36.455Z,99237.41
2023-03-06T20:34:05.380Z,99232.88
2023-03-06T20:36:36.032Z,99230.66
2023-03-06T20:39:06.972Z,99230.00
2023-03-06T20:41:35.473Z,99238.66
2023-03-06T20:44:06.221Z,99238.75
2023-03-06T20:46:36.212Z,99230.75
2023-03-06T20:49:04.875Z,99235.38
2023-03-06T20:51:36.092Z,99238.13
2023-03-06T20:54:05.051Z,99229.63
2023-03-06T20:56:34.935Z,99235.09
2023-03-06T20:59:03.165Z,99225.06
2023-03-06T21:01:33.731Z,99226.16
2023-03-06T21:04:04.516Z,99221.81
2023-03-06T21:06:32.984Z,99219.72
2023-03-06T21:09:02.480Z,99219.50
2023-03-06T21:11:30.653Z,99207.38
2023-03-06T21:13:59.034Z,99205.97
2023-03-06T21:16:28.268Z,99202.59
2023-03-06T21:18:56.621Z,99204.66
2023-03-06T21:21:28.670Z,99196.13
2023-03-06T21:23:57.603Z,99191.91
2023-03-06T21:26:28.734Z,99197.47
2023-03-06T21:28:58.066Z,99195.72
2023-03-06T21:31:27.129Z,99197.72
2023-03-06T21:33:55.343Z,99190.84
2023-03-06T21:36:24.025Z,99197.16
2023-03-06T21:38:54.576Z,99187.75
2023-03-06T21:41:25.632Z,99182.41
2023-03-06T21:43:58.430Z,99186.09
2023-03-06T21:46:27.470Z,99173.41
2023-03-06T21:48:56.219Z,99176.34
2023-03-06T21:51:25.575Z,99175.00
2023-03-06T21:53:55.857Z,99171.75
2023-03-06T21:56:28.413Z,99171.91
2023-03-06T21:58:56.575Z,99168.44
2023-03-06T22:01:27.582Z,99164.00
2023-03-06T22:03:57.039Z,99165.91
2023-03-06T22:06:26.730Z,99163.66
2023-03-06T22:08:57.509Z,99162.91
2023-03-06T22:11:27.498Z,99164.97
2023-03-06T22:13:55.756Z,99151.72
2023-03-06T22:16:23.834Z,99155.19
2023-03-06T22:18:52.726Z,99145.13
2023-03-06T22:21:23.055Z,99147.72
2023-03-06T22:23:52.063Z,99152.09
2023-03-06T22:26:21.464Z,99153.13
2023-03-06T22:28:49.774Z,99148.81
2023-03-06T22:31:19.705Z,99135.88
2023-03-06T22:33:48.165Z,99136.06
2023-03-06T22:36:16.735Z,99133.50
2023-03-06T22:38:46.981Z,99127.50
2023-03-06T22:41:16.305Z,99126.66
2023-03-06T22:43:45.930Z,99123.09
2023-03-06T22:46:15.732Z,99123.94
2023-03-06T22:48:44.823Z,99116.97
2023-03-06T22:51:15.258Z,99115.31
2023-03-06T22:53:43.828Z,99110.19
2023-03-06T22:56:14.060Z,99108.63
2023-03-06T22:58:44.789Z,99104.50
2023-03-06T23:01:16.626Z,99102.97
2023-03-06T23:03:46.706Z,99091.63
2023-03-06T23:06:16.740Z,99095.38
2023-03-06T23:08:49.075Z,99085.81
2023-03-06T23:11:19.491Z,99079.72
2023-03-06T23:14:06.223Z,99075.94
2023-03-06T23:16:54.444Z,99071.81
2023-03-06T23:19:40.749Z,99069.09
2023-03-06T23:22:27.443Z,99070.69
2023-03-06T23:25:14.451Z,99064.69
2023-03-06T23:27:43.056Z,99065.78
2023-03-06T23:30:12.903Z,99056.06
2023-03-06T23:32:44.258Z,99063.16
2023-03-06T23:35:14.557Z,99054.16
2023-03-06T23:37:42.680Z,99055.66
2023-03-06T23:40:11.900Z,99056.41
2023-03-06T23:42:40.337Z,99051.72
2023-03-06T23:45:27.443Z,99055.94
2023-03-06T23:48:15.633Z,99049.63
2023-03-06T23:51:07.405Z,99045.63
2023-03-06T23:53:56.299Z,99041.94
2023-03-06T23:56:43.225Z,99039.13
2023-03-06T23:59:30.014Z,99032.00
